SBRJ/SDU METAR and TAF weather

Enter ICAO airport designator
Station Type Date Time Source
SBRJ METAR 2019/04/23 04:00 UTC NOAA

SBRJ 230400Z 04003KT CAVOK 26/24 Q1014


Station Type Date Time Source
SBRJ Decoded METAR 2019/04/23 04:00 UTC NOAA

Rio De Janeiro Aeroporto , Brazil (SBRJ) 22-54S 043-10W
Apr 23, 2019 - 12:00 AM EDT / 2019.04.23 0400 UTC
Wind: from the NE (040 degrees) at 3 MPH (3 KT):0
Visibility: greater than 7 mile(s):0
Temperature: 78 F (26 C)
Dew Point: 75 F (24 C)
Relative Humidity: 88%
Pressure (altimeter): 29.94 in. Hg (1014 hPa)
ob: SBRJ 230400Z 04003KT CAVOK 26/24 Q1014
cycle: 4

Station Type Date Time Source
SBRJ TAF 2019/04/23 00:33 UTC NOAA

TAF SBRJ 222130Z 2300/2312 24003KT 9999 FEW025TN25/2309Z TX28/2312Z
BECMG 2303/2305 29003KT 8000 FEW010 BKN030
BECMG 2309/2311 06005KT 9999 SCT030
RMK PFV

Example: see airport list